createdAt,value
2018-04-23T00:00:01.329Z,63.70
2018-04-23T00:01:04.057Z,58.70
2018-04-23T00:02:01.411Z,59.30
2018-04-23T00:03:00.716Z,57.60
2018-04-23T00:04:02.159Z,58.60
2018-04-23T00:05:01.121Z,61.40
2018-04-23T00:06:02.659Z,58.00
2018-04-23T00:07:00.380Z,63.20
2018-04-23T00:08:01.969Z,64.30
2018-04-23T00:09:00.666Z,65.00
2018-04-23T00:10:00.749Z,61.70
2018-04-23T00:11:02.703Z,61.10
2018-04-23T00:12:02.811Z,59.30
2018-04-23T00:13:01.076Z,57.60
2018-04-23T00:14:00.263Z,58.30
2018-04-23T00:15:01.403Z,58.60
2018-04-23T00:16:00.118Z,58.30
2018-04-23T00:17:00.499Z,59.50
2018-04-23T00:18:01.623Z,58.20
2018-04-23T00:19:04.361Z,58.30
2018-04-23T00:20:07.479Z,59.20
2018-04-23T00:21:00.679Z,60.60
2018-04-23T00:22:00.681Z,59.40
2018-04-23T00:23:01.288Z,61.30
2018-04-23T00:24:01.212Z,59.60
2018-04-23T00:25:03.203Z,61.00
2018-04-23T00:26:02.203Z,63.70
2018-04-23T00:27:00.531Z,63.40
2018-04-23T00:28:02.220Z,64.20
2018-04-23T00:29:01.805Z,62.50
2018-04-23T00:30:02.735Z,64.70
2018-04-23T00:31:01.673Z,70.00
2018-04-23T00:32:01.215Z,63.90
2018-04-23T00:33:02.051Z,63.00
2018-04-23T00:34:01.015Z,61.10
2018-04-23T00:35:00.134Z,64.70
2018-04-23T00:36:04.476Z,62.60
2018-04-23T00:37:00.563Z,60.00
2018-04-23T00:38:02.298Z,52.20
2018-04-23T00:39:02.080Z,47.60
2018-04-23T00:40:01.357Z,40.70
2018-04-23T00:41:02.418Z,33.30
2018-04-23T00:42:03.678Z,32.60
2018-04-23T00:43:04.975Z,33.90
2018-04-23T00:44:08.471Z,34.70
2018-04-23T00:45:01.744Z,33.30
2018-04-23T00:46:02.277Z,32.90
2018-04-23T00:47:06.978Z,30.80
2018-04-23T00:48:07.264Z,32.60
2018-04-23T00:49:08.947Z,29.60
2018-04-23T00:50:07.933Z,32.10
2018-04-23T00:51:06.927Z,32.70
2018-04-23T00:52:06.176Z,33.40
2018-04-23T00:53:02.247Z,32.80
2018-04-23T00:54:01.687Z,34.00
2018-04-23T00:55:01.886Z,31.40
2018-04-23T00:56:00.735Z,34.40
2018-04-23T00:57:02.952Z,32.70
2018-04-23T00:58:01.777Z,32.10
2018-04-23T00:59:01.300Z,31.80
2018-04-23T01:00:04.175Z,31.70
2018-04-23T01:01:02.692Z,32.80
2018-04-23T01:02:03.286Z,32.30
2018-04-23T01:03:02.161Z,33.40
2018-04-23T01:04:03.200Z,35.00
2018-04-23T01:05:00.424Z,36.40
2018-04-23T01:06:01.261Z,36.60
2018-04-23T01:07:01.920Z,36.30
2018-04-23T01:08:03.208Z,36.90
2018-04-23T01:09:01.936Z,37.90
2018-04-23T01:10:02.923Z,37.50
2018-04-23T01:11:02.600Z,36.60
2018-04-23T01:12:01.850Z,37.70
2018-04-23T01:13:03.212Z,40.10
2018-04-23T01:14:02.226Z,39.00
2018-04-23T01:15:00.708Z,40.00
2018-04-23T01:16:03.088Z,40.40
2018-04-23T01:17:02.006Z,40.60
2018-04-23T01:18:02.053Z,41.20
2018-04-23T01:19:01.790Z,41.10
2018-04-23T01:20:03.218Z,41.80
2018-04-23T01:21:01.942Z,42.00
2018-04-23T01:22:01.736Z,41.30
2018-04-23T01:23:02.805Z,44.10
2018-04-23T01:24:04.168Z,43.80
2018-04-23T01:25:03.541Z,42.20
2018-04-23T01:26:00.806Z,46.00
2018-04-23T01:27:03.479Z,45.10
2018-04-23T01:28:01.967Z,45.10
2018-04-23T01:29:09.624Z,43.30
2018-04-23T01:30:00.843Z,44.50
2018-04-23T01:31:01.229Z,45.30
2018-04-23T01:32:03.085Z,46.50
2018-04-23T01:33:00.827Z,46.10
2018-04-23T01:34:01.592Z,47.80
2018-04-23T01:35:01.692Z,46.60
2018-04-23T01:36:02.284Z,45.20
2018-04-23T01:37:03.250Z,48.30
2018-04-23T01:38:02.423Z,49.20
2018-04-23T01:39:03.973Z,47.90
2018-04-23T01:40:03.705Z,48.00
2018-04-23T01:41:00.420Z,49.90
2018-04-23T01:42:01.548Z,47.90
2018-04-23T01:43:01.230Z,48.70
2018-04-23T01:44:01.566Z,48.20
2018-04-23T01:45:03.811Z,48.50
2018-04-23T01:46:00.595Z,50.40
2018-04-23T01:47:01.840Z,49.10
2018-04-23T01:48:00.943Z,49.30
2018-04-23T01:49:03.416Z,49.10
2018-04-23T01:50:05.581Z,50.40
2018-04-23T01:51:01.208Z,51.40
2018-04-23T01:52:01.208Z,52.60
2018-04-23T01:53:00.774Z,51.50
2018-04-23T01:54:00.792Z,50.30
2018-04-23T01:55:02.446Z,52.10
2018-04-23T01:56:01.537Z,52.30
2018-04-23T01:57:01.232Z,52.30
2018-04-23T01:58:02.881Z,51.70
2018-04-23T01:59:02.075Z,51.30
2018-04-23T02:00:03.333Z,52.20
2018-04-23T02:01:00.781Z,53.80
2018-04-23T02:02:00.937Z,52.00
2018-04-23T02:03:01.216Z,53.50
2018-04-23T02:04:00.840Z,50.70
2018-04-23T02:05:01.207Z,53.90
2018-04-23T02:06:04.784Z,53.50
2018-04-23T02:07:00.883Z,51.80
2018-04-23T02:08:02.059Z,53.50
2018-04-23T02:09:03.255Z,52.70
2018-04-23T02:10:01.934Z,51.30
2018-04-23T02:11:01.225Z,52.10
2018-04-23T02:12:01.656Z,52.00
2018-04-23T02:13:00.778Z,52.80
2018-04-23T02:14:02.488Z,51.50
2018-04-23T02:15:01.218Z,52.30
2018-04-23T02:16:00.499Z,56.00
2018-04-23T02:17:03.621Z,55.20
2018-04-23T02:18:01.222Z,55.80
2018-04-23T02:19:02.608Z,56.50
2018-04-23T02:20:02.455Z,55.60
2018-04-23T02:21:00.620Z,57.80
2018-04-23T02:22:02.011Z,57.30
2018-04-23T02:23:01.971Z,54.80
2018-04-23T02:24:05.225Z,54.70
2018-04-23T02:25:02.750Z,55.50
2018-04-23T02:26:01.222Z,55.30
2018-04-23T02:27:01.216Z,57.30
2018-04-23T02:28:02.216Z,56.60
2018-04-23T02:29:03.670Z,56.20
2018-04-23T02:30:05.545Z,56.20
2018-04-23T02:31:02.718Z,58.10
2018-04-23T02:32:03.724Z,63.50
2018-04-23T02:33:03.618Z,64.40
2018-04-23T02:34:01.218Z,67.50
2018-04-23T02:35:00.941Z,65.30
2018-04-23T02:36:03.866Z,62.80
2018-04-23T02:37:03.652Z,64.10
2018-04-23T02:38:01.619Z,63.20
2018-04-23T02:39:01.183Z,63.00
2018-04-23T02:40:03.595Z,65.90
2018-04-23T02:41:01.878Z,64.50
2018-04-23T02:42:04.490Z,66.10
2018-04-23T02:43:00.859Z,67.40
2018-04-23T02:44:00.803Z,65.10
2018-04-23T02:45:01.771Z,66.30
2018-04-23T02:46:00.855Z,65.40
2018-04-23T02:47:02.781Z,66.90
2018-04-23T02:48:00.719Z,65.50
2018-04-23T02:49:02.232Z,65.80
2018-04-23T02:50:01.234Z,65.80
2018-04-23T02:51:05.330Z,63.90
2018-04-23T02:52:01.833Z,64.40
2018-04-23T02:53:01.735Z,63.30
2018-04-23T02:54:04.605Z,63.70
2018-04-23T02:55:01.010Z,63.60
2018-04-23T02:56:01.093Z,61.90
2018-04-23T02:57:01.036Z,63.80
2018-04-23T02:58:01.042Z,62.90
2018-04-23T02:59:02.130Z,65.00
2018-04-23T03:00:05.935Z,67.50
2018-04-23T03:01:02.546Z,65.70
2018-04-23T03:02:02.335Z,64.40
2018-04-23T03:03:03.295Z,64.90
2018-04-23T03:04:01.905Z,66.40
2018-04-23T03:05:03.539Z,68.40
2018-04-23T03:06:01.320Z,66.90
2018-04-23T03:07:01.837Z,67.10
2018-04-23T03:08:01.505Z,68.20
2018-04-23T03:09:02.469Z,66.10
2018-04-23T03:10:02.956Z,70.20
2018-04-23T03:11:01.663Z,70.20
2018-04-23T03:12:03.971Z,70.50
2018-04-23T03:13:01.930Z,70.50
2018-04-23T03:14:01.059Z,67.20
2018-04-23T03:15:03.552Z,72.00
2018-04-23T03:16:02.839Z,69.20
2018-04-23T03:17:02.309Z,72.30
2018-04-23T03:18:01.432Z,72.50
2018-04-23T03:19:00.911Z,75.80
2018-04-23T03:20:01.233Z,73.10
2018-04-23T03:21:03.488Z,70.20
2018-04-23T03:22:01.293Z,70.30
2018-04-23T03:23:02.953Z,69.20
2018-04-23T03:24:01.950Z,70.90
2018-04-23T03:25:01.198Z,71.00
2018-04-23T03:26:01.001Z,73.40
2018-04-23T03:27:01.257Z,75.50
2018-04-23T03:28:01.202Z,70.90
2018-04-23T03:29:01.780Z,76.30
2018-04-23T03:30:01.794Z,74.80
2018-04-23T03:31:01.627Z,71.20
2018-04-23T03:32:06.126Z,72.90
2018-04-23T03:33:01.740Z,72.10
2018-04-23T03:34:02.506Z,71.80
2018-04-23T03:35:01.619Z,72.20
2018-04-23T03:36:03.565Z,70.10
2018-04-23T03:37:04.731Z,69.50
2018-04-23T03:38:03.380Z,72.40
2018-04-23T03:39:01.032Z,71.60
2018-04-23T03:40:00.964Z,71.60
2018-04-23T03:41:01.901Z,70.70
2018-04-23T03:42:03.011Z,73.60
2018-04-23T03:43:01.165Z,73.40
2018-04-23T03:44:00.987Z,69.30
2018-04-23T03:45:04.520Z,71.60
2018-04-23T03:46:01.800Z,67.40
2018-04-23T03:47:02.244Z,69.10
2018-04-23T03:48:04.282Z,66.80
2018-04-23T03:49:06.243Z,61.90
2018-04-23T03:50:01.382Z,62.50
2018-04-23T03:51:02.209Z,59.00
2018-04-23T03:52:03.592Z,53.80
2018-04-23T03:53:01.682Z,50.60
2018-04-23T03:54:03.599Z,47.80
2018-04-23T03:55:01.259Z,50.10
2018-04-23T03:56:04.019Z,49.10
2018-04-23T03:57:02.706Z,44.20
2018-04-23T03:58:01.379Z,45.30
2018-04-23T03:59:01.954Z,42.60
2018-04-23T04:00:02.192Z,43.90
2018-04-23T04:01:01.052Z,43.80
2018-04-23T04:02:02.538Z,44.40
2018-04-23T04:03:01.487Z,45.20
2018-04-23T04:04:01.084Z,41.90
2018-04-23T04:05:02.375Z,42.40
2018-04-23T04:06:01.755Z,41.80
2018-04-23T04:07:02.473Z,43.50
2018-04-23T04:08:01.413Z,42.90
2018-04-23T04:09:03.818Z,43.20
2018-04-23T04:10:01.255Z,42.30
2018-04-23T04:11:02.355Z,41.60
2018-04-23T04:12:01.990Z,41.90
2018-04-23T04:13:01.104Z,44.00
2018-04-23T04:14:02.509Z,44.10
2018-04-23T04:15:03.064Z,45.00
2018-04-23T04:16:01.279Z,46.40
2018-04-23T04:17:01.412Z,44.60
2018-04-23T04:18:01.329Z,43.50
2018-04-23T04:19:03.144Z,44.80
2018-04-23T04:20:02.572Z,44.00
2018-04-23T04:21:02.351Z,44.20
2018-04-23T04:22:01.267Z,47.20
2018-04-23T04:23:02.817Z,44.60
2018-04-23T04:24:03.508Z,45.40
2018-04-23T04:25:02.472Z,46.70
2018-04-23T04:26:04.010Z,45.40
2018-04-23T04:27:01.772Z,45.70
2018-04-23T04:28:02.542Z,46.90
2018-04-23T04:29:01.801Z,47.90
2018-04-23T04:30:02.470Z,46.80
2018-04-23T04:31:02.032Z,49.30
2018-04-23T04:32:01.822Z,48.50
2018-04-23T04:33:01.428Z,48.50
2018-04-23T04:34:01.328Z,48.70
2018-04-23T04:35:01.333Z,49.00
2018-04-23T04:36:01.592Z,49.20
2018-04-23T04:37:02.175Z,49.20
2018-04-23T04:38:01.569Z,49.00
2018-04-23T04:39:01.887Z,48.00
2018-04-23T04:40:02.531Z,49.80
2018-04-23T04:41:02.803Z,49.60
2018-04-23T04:42:01.795Z,49.10
2018-04-23T04:43:03.137Z,48.30
2018-04-23T04:44:01.276Z,47.70
2018-04-23T04:45:03.446Z,49.60
2018-04-23T04:46:03.274Z,47.80
2018-04-23T04:47:02.630Z,47.90
2018-04-23T04:48:04.488Z,46.10
2018-04-23T04:49:02.177Z,47.30
2018-04-23T04:50:01.235Z,46.20
2018-04-23T04:51:01.166Z,42.90
2018-04-23T04:52:02.952Z,43.10
2018-04-23T04:53:02.355Z,37.50
2018-04-23T04:54:03.774Z,37.90
2018-04-23T04:55:04.059Z,36.70
2018-04-23T04:56:01.332Z,36.30
2018-04-23T04:57:03.920Z,36.40
2018-04-23T04:58:03.854Z,37.20
2018-04-23T04:59:03.805Z,36.50
2018-04-23T05:00:07.286Z,34.60
2018-04-23T05:01:04.595Z,33.70
2018-04-23T05:02:03.405Z,36.70
2018-04-23T05:03:03.277Z,34.80
2018-04-23T05:04:01.715Z,35.30
2018-04-23T05:05:04.017Z,33.40
2018-04-23T05:06:02.315Z,34.80
2018-04-23T05:07:01.771Z,32.50
2018-04-23T05:08:04.742Z,32.90
2018-04-23T05:09:03.253Z,34.90
2018-04-23T05:10:02.624Z,33.90
2018-04-23T05:11:04.000Z,33.70
2018-04-23T05:12:02.328Z,32.60
2018-04-23T05:13:02.962Z,33.00
2018-04-23T05:14:02.772Z,31.80
2018-04-23T05:15:03.466Z,30.90
2018-04-23T05:16:01.229Z,31.20
2018-04-23T05:17:03.067Z,32.70
2018-04-23T05:18:03.025Z,32.90
2018-04-23T05:19:02.267Z,30.60
2018-04-23T05:20:03.731Z,34.40
2018-04-23T05:21:05.181Z,32.20
2018-04-23T05:22:07.959Z,32.40
2018-04-23T05:23:02.808Z,31.40
2018-04-23T05:24:01.255Z,32.50
2018-04-23T05:25:01.472Z,32.20
2018-04-23T05:26:01.527Z,31.30
2018-04-23T05:27:01.784Z,31.30
2018-04-23T05:28:01.472Z,32.10
2018-04-23T05:29:01.784Z,29.80
2018-04-23T05:30:01.404Z,31.50
2018-04-23T05:31:02.649Z,31.60
2018-04-23T05:32:01.500Z,31.80
2018-04-23T05:33:04.330Z,30.60
2018-04-23T05:34:03.492Z,30.70
2018-04-23T05:35:04.444Z,29.60
2018-04-23T05:36:01.571Z,27.70
2018-04-23T05:37:04.147Z,28.40
2018-04-23T05:38:03.950Z,28.50
2018-04-23T05:39:03.939Z,28.40
2018-04-23T05:40:01.798Z,26.90
2018-04-23T05:41:02.905Z,28.90
2018-04-23T05:42:03.711Z,28.50
2018-04-23T05:43:03.742Z,27.10
2018-04-23T05:44:02.651Z,27.60
2018-04-23T05:45:08.422Z,27.00
2018-04-23T05:46:04.811Z,26.20
2018-04-23T05:47:04.425Z,26.50
2018-04-23T05:48:01.924Z,26.40
2018-04-23T05:49:03.808Z,24.10
2018-04-23T05:50:02.793Z,24.60
2018-04-23T05:51:02.077Z,23.80
2018-04-23T05:52:01.373Z,22.70
2018-04-23T05:53:03.239Z,21.20
2018-04-23T05:54:05.419Z,22.70
2018-04-23T05:55:02.677Z,23.60
2018-04-23T05:56:01.791Z,23.40
2018-04-23T05:57:05.309Z,22.90
2018-04-23T05:58:04.184Z,21.70
2018-04-23T05:59:01.570Z,20.80
2018-04-23T06:00:03.690Z,20.90
2018-04-23T06:01:04.691Z,21.20
2018-04-23T06:02:04.780Z,21.40
2018-04-23T06:03:04.442Z,20.80
2018-04-23T06:04:06.013Z,22.20
2018-04-23T06:05:05.500Z,21.60
2018-04-23T06:06:03.694Z,21.50
2018-04-23T06:07:04.034Z,20.40
2018-04-23T06:08:02.575Z,21.30
2018-04-23T06:09:02.680Z,19.30
2018-04-23T06:10:04.326Z,19.50
2018-04-23T06:11:04.217Z,20.60
2018-04-23T06:12:04.736Z,19.30
2018-04-23T06:13:04.187Z,19.40
2018-04-23T06:14:02.868Z,21.00
2018-04-23T06:15:04.747Z,20.10
2018-04-23T06:16:04.312Z,19.60
2018-04-23T06:17:03.727Z,19.30
2018-04-23T06:18:02.273Z,20.40
2018-04-23T06:19:03.099Z,19.70
2018-04-23T06:20:04.949Z,19.20
2018-04-23T06:21:03.533Z,20.40
2018-04-23T06:22:03.633Z,19.00
2018-04-23T06:23:04.587Z,19.70
2018-04-23T06:24:01.421Z,17.90
2018-04-23T06:25:01.730Z,17.70
2018-04-23T06:26:01.523Z,19.30
2018-04-23T06:27:02.416Z,19.70
2018-04-23T06:28:02.862Z,18.80
2018-04-23T06:29:03.198Z,18.40
2018-04-23T06:30:01.986Z,18.20
2018-04-23T06:31:02.079Z,17.60
2018-04-23T06:32:01.403Z,16.90
2018-04-23T06:33:02.245Z,17.00
2018-04-23T06:34:01.373Z,18.50
2018-04-23T06:35:01.678Z,17.70
2018-04-23T06:36:01.537Z,16.30
2018-04-23T06:37:01.452Z,16.60
2018-04-23T06:38:03.094Z,15.60
2018-04-23T06:39:02.539Z,16.80
2018-04-23T06:40:01.511Z,16.20
2018-04-23T06:41:02.754Z,15.30
2018-04-23T06:42:03.960Z,15.90
2018-04-23T06:43:01.611Z,16.80
2018-04-23T06:44:01.785Z,16.40
2018-04-23T06:45:01.392Z,16.90
2018-04-23T06:46:01.478Z,16.00
2018-04-23T06:47:01.513Z,16.40
2018-04-23T06:48:02.387Z,16.90
2018-04-23T06:49:02.508Z,16.30
2018-04-23T06:50:01.604Z,16.40
2018-04-23T06:51:02.897Z,16.10
2018-04-23T06:52:02.835Z,16.20
2018-04-23T06:53:01.516Z,16.40
2018-04-23T06:54:01.631Z,16.70
2018-04-23T06:55:05.054Z,16.00
2018-04-23T06:56:02.092Z,15.80
2018-04-23T06:57:25.318Z,15.20
2018-04-23T06:58:03.541Z,15.40
2018-04-23T06:59:02.451Z,15.30
2018-04-23T07:00:03.524Z,16.10
2018-04-23T07:01:01.514Z,15.60
2018-04-23T07:02:01.779Z,15.70
2018-04-23T07:03:03.535Z,15.10
2018-04-23T07:04:02.727Z,14.90
2018-04-23T07:05:01.549Z,15.10
2018-04-23T07:06:04.979Z,15.50
2018-04-23T07:07:01.562Z,14.80
2018-04-23T07:08:04.499Z,15.60
2018-04-23T07:09:02.786Z,14.80
2018-04-23T07:10:01.521Z,15.20
2018-04-23T07:11:04.710Z,16.50
2018-04-23T07:12:01.930Z,15.80
2018-04-23T07:13:01.569Z,16.00
2018-04-23T07:14:02.148Z,15.50
2018-04-23T07:15:02.590Z,15.80
2018-04-23T07:16:01.509Z,16.30
2018-04-23T07:17:01.625Z,16.30
2018-04-23T07:18:03.465Z,15.90
2018-04-23T07:19:02.322Z,15.60
2018-04-23T07:20:01.660Z,16.00
2018-04-23T07:21:02.555Z,16.40
2018-04-23T07:22:02.747Z,14.20
2018-04-23T07:23:01.751Z,15.30
2018-04-23T07:24:09.783Z,14.60
2018-04-23T07:25:02.331Z,14.60
2018-04-23T07:26:01.864Z,14.00
2018-04-23T07:27:01.786Z,14.90
2018-04-23T07:28:03.481Z,14.90
2018-04-23T07:29:01.897Z,13.90
2018-04-23T07:30:02.395Z,14.50
2018-04-23T07:31:23.822Z,14.50
2018-04-23T07:32:08.243Z,14.00
2018-04-23T07:33:15.610Z,13.60
2018-04-23T07:34:03.117Z,13.50
2018-04-23T07:36:27.205Z,13.40
2018-04-23T07:37:03.611Z,13.20
2018-04-23T07:38:09.116Z,13.30
2018-04-23T07:39:06.890Z,12.60
2018-04-23T07:40:07.832Z,13.50
2018-04-23T07:41:29.712Z,13.80
2018-04-23T07:42:02.846Z,12.20
2018-04-23T07:43:03.233Z,12.80
2018-04-23T07:44:05.064Z,11.80
2018-04-23T07:45:07.790Z,11.50
2018-04-23T07:46:06.153Z,12.20
2018-04-23T07:47:06.336Z,12.00
2018-04-23T07:48:01.702Z,12.60
2018-04-23T07:49:02.360Z,12.40
2018-04-23T07:50:04.198Z,12.30
2018-04-23T07:51:02.580Z,11.90
2018-04-23T07:52:08.387Z,12.50
2018-04-23T07:53:03.789Z,11.80
2018-04-23T07:54:02.836Z,12.10
2018-04-23T07:55:03.643Z,11.90
2018-04-23T07:56:02.351Z,11.40
2018-04-23T07:57:02.883Z,12.00
2018-04-23T07:58:04.092Z,12.20
2018-04-23T07:59:05.286Z,11.10
2018-04-23T08:00:02.422Z,11.50
2018-04-23T08:01:02.336Z,11.70
2018-04-23T08:02:04.773Z,12.00
2018-04-23T08:03:04.853Z,10.80
2018-04-23T08:04:06.939Z,11.80
2018-04-23T08:05:04.865Z,12.50
2018-04-23T08:06:02.996Z,11.40
2018-04-23T08:07:03.782Z,11.10
2018-04-23T08:08:10.618Z,10.90
2018-04-23T08:09:04.445Z,11.60
2018-04-23T08:10:05.016Z,10.80
2018-04-23T08:12:35.067Z,10.10
2018-04-23T08:13:40.425Z,10.30
2018-04-23T08:14:40.870Z,9.70
2018-04-23T08:15:41.824Z,10.40
2018-04-23T08:16:40.800Z,9.60
2018-04-23T08:17:43.475Z,9.90
2018-04-23T08:18:42.846Z,10.00
2018-04-23T08:19:41.074Z,10.10
2018-04-23T08:20:44.464Z,9.70
2018-04-23T08:21:44.963Z,10.90
2018-04-23T08:22:44.684Z,10.50
2018-04-23T08:23:46.198Z,10.20
2018-04-23T08:24:48.131Z,10.20
2018-04-23T08:25:45.560Z,9.50
2018-04-23T08:26:42.117Z,10.00
2018-04-23T08:33:18.659Z,10.40
2018-04-23T08:39:37.891Z,9.60
2018-04-23T08:40:15.993Z,9.30
2018-04-23T08:42:16.906Z,9.00
2018-04-23T08:43:16.440Z,8.90
2018-04-23T08:44:51.769Z,9.40
2018-04-23T08:45:15.891Z,8.80
2018-04-23T08:46:15.834Z,8.80
2018-04-23T08:47:15.837Z,9.30
2018-04-23T08:48:15.850Z,9.10
2018-04-23T08:49:15.860Z,9.50
2018-04-23T08:50:18.345Z,9.50
2018-04-23T08:51:15.906Z,9.80
2018-04-23T08:52:16.762Z,9.30
2018-04-23T08:53:15.878Z,9.10
2018-04-23T08:54:15.944Z,9.80
2018-04-23T08:55:15.932Z,9.80
2018-04-23T08:56:15.973Z,9.30
2018-04-23T08:57:15.950Z,9.10
2018-04-23T08:58:16.262Z,9.80
2018-04-23T08:59:16.196Z,9.20
2018-04-23T09:00:15.965Z,9.30
2018-04-23T09:01:16.034Z,8.80
2018-04-23T09:02:16.100Z,9.10
2018-04-23T09:03:16.127Z,8.60
2018-04-23T09:04:16.157Z,8.50
2018-04-23T09:05:16.038Z,9.40
2018-04-23T09:06:16.071Z,8.60
2018-04-23T09:07:16.129Z,8.60
2018-04-23T09:08:16.348Z,9.40
2018-04-23T09:09:16.153Z,8.40
2018-04-23T09:10:16.163Z,8.60
2018-04-23T09:11:16.137Z,8.40
2018-04-23T09:12:16.156Z,7.70
2018-04-23T09:13:16.178Z,8.90
2018-04-23T09:14:16.254Z,8.90
2018-04-23T09:15:16.249Z,8.80
2018-04-23T09:16:16.313Z,8.10
2018-04-23T09:17:16.621Z,8.60
2018-04-23T09:18:16.321Z,8.70
2018-04-23T09:19:16.327Z,9.40
2018-04-23T09:20:16.444Z,8.60
2018-04-23T09:21:16.351Z,7.70
2018-04-23T09:22:16.309Z,8.20
2018-04-23T09:23:16.348Z,7.90
2018-04-23T09:24:16.391Z,7.70
2018-04-23T09:25:17.280Z,7.10
2018-04-23T09:26:16.416Z,7.90
2018-04-23T09:27:16.449Z,7.80
2018-04-23T09:28:16.413Z,8.60
2018-04-23T09:29:16.474Z,8.40
2018-04-23T09:30:17.288Z,7.70
2018-04-23T09:31:16.551Z,7.40
2018-04-23T09:32:16.524Z,8.20
2018-04-23T09:33:16.494Z,8.90
2018-04-23T09:34:16.563Z,8.50
2018-04-23T09:35:16.531Z,7.50
2018-04-23T09:36:16.635Z,8.20
2018-04-23T09:37:16.574Z,7.80
2018-04-23T09:38:16.646Z,7.80
2018-04-23T09:39:16.632Z,8.30
2018-04-23T09:40:16.667Z,8.20
2018-04-23T09:41:16.672Z,8.40
2018-04-23T09:42:16.994Z,8.10
2018-04-23T09:43:16.661Z,7.60
2018-04-23T09:44:16.759Z,8.30
2018-04-23T09:45:16.787Z,7.70
2018-04-23T09:46:16.723Z,7.30
2018-04-23T09:47:16.801Z,7.30
2018-04-23T09:48:16.713Z,7.50
2018-04-23T09:49:16.742Z,7.90
2018-04-23T09:50:16.819Z,7.70
2018-04-23T09:51:16.800Z,7.80
2018-04-23T09:52:16.834Z,6.60
2018-04-23T09:53:16.869Z,6.60
2018-04-23T09:54:16.835Z,6.40
2018-04-23T09:55:16.853Z,6.50
2018-04-23T09:56:16.876Z,6.90
2018-04-23T09:57:16.924Z,6.80
2018-04-23T09:58:16.927Z,7.00
2018-04-23T09:59:16.934Z,7.00
2018-04-23T10:00:16.926Z,7.10
2018-04-23T10:01:16.916Z,6.40
2018-04-23T10:02:16.981Z,6.80
2018-04-23T10:03:17.012Z,6.80
2018-04-23T10:04:17.039Z,6.40
2018-04-23T10:05:17.067Z,6.40
2018-04-23T10:06:17.017Z,6.90
2018-04-23T10:07:17.062Z,7.00
2018-04-23T10:08:17.034Z,6.50
2018-04-23T10:09:17.163Z,7.20
2018-04-23T10:10:17.076Z,6.80
2018-04-23T10:11:17.100Z,6.10
2018-04-23T10:12:17.092Z,6.40
2018-04-23T10:13:17.160Z,6.40
2018-04-23T10:14:17.177Z,6.30
2018-04-23T10:15:17.217Z,6.00
2018-04-23T10:16:17.181Z,6.00
2018-04-23T10:17:17.200Z,6.40
2018-04-23T10:18:17.822Z,7.00
2018-04-23T10:19:17.278Z,7.10
2018-04-23T10:20:17.234Z,6.50
2018-04-23T10:21:17.332Z,6.80
2018-04-23T10:22:17.351Z,6.70
2018-04-23T10:23:17.308Z,7.10
2018-04-23T10:24:17.308Z,6.50
2018-04-23T10:25:17.328Z,7.10
2018-04-23T10:26:17.831Z,6.90
2018-04-23T10:27:18.324Z,7.10
2018-04-23T10:28:17.405Z,7.40
2018-04-23T10:29:17.391Z,7.50
2018-04-23T10:30:17.431Z,7.40
2018-04-23T10:31:17.457Z,7.40
2018-04-23T10:32:17.460Z,7.50
2018-04-23T10:33:17.455Z,7.20
2018-04-23T10:34:17.466Z,7.10
2018-04-23T10:35:17.488Z,7.10
2018-04-23T10:36:17.537Z,6.90
2018-04-23T10:37:18.368Z,6.90
2018-04-23T10:38:17.565Z,6.70
2018-04-23T10:39:17.554Z,7.70
2018-04-23T10:40:17.621Z,7.80
2018-04-23T10:41:17.599Z,7.10
2018-04-23T10:42:17.590Z,7.40
2018-04-23T10:43:17.600Z,7.40
2018-04-23T10:44:17.619Z,7.30
2018-04-23T10:45:17.634Z,7.40
2018-04-23T10:46:17.701Z,8.00
2018-04-23T10:47:18.335Z,7.10
2018-04-23T10:48:17.676Z,7.10
2018-04-23T10:49:17.675Z,7.70
2018-04-23T10:50:17.711Z,6.70
2018-04-23T10:51:17.736Z,6.40
2018-04-23T10:52:18.073Z,6.10
2018-04-23T10:53:17.774Z,6.50
2018-04-23T10:54:17.773Z,6.20
2018-04-23T10:55:17.788Z,6.50
2018-04-23T10:56:17.779Z,6.40
2018-04-23T10:57:17.787Z,6.40
2018-04-23T10:58:17.805Z,6.30
2018-04-23T10:59:17.816Z,6.40
2018-04-23T11:00:17.863Z,6.80
2018-04-23T11:01:17.844Z,6.50
2018-04-23T11:02:17.859Z,7.10
2018-04-23T11:03:17.872Z,6.90
2018-04-23T11:04:17.944Z,7.20
2018-04-23T11:05:18.433Z,7.40
2018-04-23T11:06:17.895Z,7.10
2018-04-23T11:07:17.942Z,7.60
2018-04-23T11:08:17.939Z,7.40
2018-04-23T11:09:17.960Z,7.20
2018-04-23T11:10:18.002Z,6.80
2018-04-23T11:11:17.963Z,7.80
2018-04-23T11:12:17.969Z,7.50
2018-04-23T11:13:18.003Z,7.50
2018-04-23T11:14:18.016Z,6.90
2018-04-23T11:15:18.022Z,7.10
2018-04-23T11:16:18.015Z,7.40
2018-04-23T11:17:18.049Z,8.10
2018-04-23T11:18:18.035Z,8.00
2018-04-23T11:19:18.059Z,7.30
2018-04-23T11:20:18.161Z,6.50
2018-04-23T11:21:18.074Z,6.60
2018-04-23T11:22:18.136Z,6.10
2018-04-23T11:23:18.080Z,6.90
2018-04-23T11:24:18.096Z,6.70
2018-04-23T11:25:18.200Z,6.10
2018-04-23T11:26:18.109Z,6.00
2018-04-23T11:27:18.112Z,6.50
2018-04-23T11:28:18.125Z,6.50
2018-04-23T11:29:18.137Z,6.60
2018-04-23T11:30:18.204Z,6.60
2018-04-23T11:31:18.191Z,6.30
2018-04-23T11:32:18.162Z,5.80
2018-04-23T11:33:18.163Z,5.20
2018-04-23T11:34:18.241Z,5.80
2018-04-23T11:35:18.230Z,5.90
2018-04-23T11:36:18.181Z,5.80
2018-04-23T11:37:18.194Z,6.00
2018-04-23T11:38:18.220Z,5.50
2018-04-23T11:39:18.217Z,5.30
2018-04-23T11:40:18.223Z,5.10
2018-04-23T11:41:18.285Z,6.30
2018-04-23T11:42:18.290Z,5.40
2018-04-23T11:43:18.267Z,5.60
2018-04-23T11:44:18.242Z,5.00
2018-04-23T11:45:18.338Z,6.00
2018-04-23T11:46:18.315Z,5.90
2018-04-23T11:47:18.321Z,6.60
2018-04-23T11:48:18.873Z,6.60
2018-04-23T11:49:18.434Z,6.40
2018-04-23T11:50:18.334Z,6.30
2018-04-23T11:51:18.311Z,6.20
2018-04-23T11:52:18.332Z,6.60
2018-04-23T11:53:18.315Z,7.00
2018-04-23T11:54:18.325Z,6.80
2018-04-23T11:55:18.335Z,6.70
2018-04-23T11:56:18.398Z,7.40
2018-04-23T11:57:18.431Z,19.50
2018-04-23T11:58:18.470Z,9.80
2018-04-23T11:59:18.436Z,6.80
2018-04-23T12:00:18.397Z,6.70
2018-04-23T12:01:18.527Z,6.40
2018-04-23T12:02:18.495Z,6.70
2018-04-23T12:03:18.439Z,6.90
2018-04-23T12:04:18.465Z,7.10
2018-04-23T12:05:18.438Z,6.90
2018-04-23T12:06:18.546Z,7.00
2018-04-23T12:07:18.474Z,6.20
2018-04-23T12:08:18.477Z,6.80
2018-04-23T12:09:18.511Z,6.50
2018-04-23T12:10:18.472Z,7.00
2018-04-23T12:11:18.582Z,6.80
2018-04-23T12:12:18.535Z,7.60
2018-04-23T12:13:18.509Z,7.90
2018-04-23T12:14:18.500Z,9.90
2018-04-23T12:15:18.520Z,8.60
2018-04-23T12:16:18.605Z,7.50
2018-04-23T12:17:18.525Z,7.50
2018-04-23T12:18:19.541Z,7.40
2018-04-23T12:19:18.548Z,7.10
2018-04-23T12:20:18.519Z,7.00
2018-04-23T12:21:18.530Z,7.30
2018-04-23T12:22:18.536Z,7.00
2018-04-23T12:23:18.609Z,6.90
2018-04-23T12:24:18.621Z,7.20
2018-04-23T12:25:18.587Z,6.00
2018-04-23T12:26:33.855Z,6.20
2018-04-23T12:27:18.568Z,7.10
2018-04-23T12:28:18.660Z,6.70
2018-04-23T12:29:18.601Z,7.00
2018-04-23T12:30:18.687Z,7.20
2018-04-23T12:31:18.686Z,7.50
2018-04-23T12:32:18.739Z,7.30
2018-04-23T12:33:18.655Z,6.50
2018-04-23T12:34:18.656Z,6.80
2018-04-23T12:35:18.639Z,7.10
2018-04-23T12:36:18.635Z,6.10
2018-04-23T12:37:18.632Z,6.80
2018-04-23T12:38:18.669Z,6.50
2018-04-23T12:39:18.678Z,6.90
2018-04-23T12:40:18.663Z,6.20
2018-04-23T12:41:19.393Z,6.50
2018-04-23T12:42:18.693Z,7.70
2018-04-23T12:43:18.761Z,7.30
2018-04-23T12:44:18.700Z,7.40
2018-04-23T12:45:18.708Z,8.10
2018-04-23T12:46:18.736Z,7.40
2018-04-23T12:47:18.703Z,8.00
2018-04-23T12:48:18.710Z,7.50
2018-04-23T12:49:18.748Z,7.40
2018-04-23T12:50:19.406Z,8.30
2018-04-23T12:51:18.808Z,7.80
2018-04-23T12:52:18.775Z,7.50
2018-04-23T12:53:18.855Z,7.50
2018-04-23T12:54:18.818Z,7.60
2018-04-23T12:55:18.779Z,8.30
2018-04-23T12:56:18.764Z,8.00
2018-04-23T12:57:18.796Z,8.40
2018-04-23T12:58:18.796Z,20.30
2018-04-23T12:59:18.792Z,13.00
2018-04-23T13:00:18.800Z,9.20
2018-04-23T13:01:18.794Z,8.30
2018-04-23T13:02:18.787Z,7.90
2018-04-23T13:03:18.901Z,7.60
2018-04-23T13:04:18.874Z,7.70
2018-04-23T13:05:19.403Z,8.00
2018-04-23T13:06:18.830Z,7.90
2018-04-23T13:07:18.819Z,8.20
2018-04-23T13:08:18.937Z,7.70
2018-04-23T13:09:18.882Z,6.90
2018-04-23T13:10:18.858Z,7.40
2018-04-23T13:11:18.876Z,8.20
2018-04-23T13:12:18.935Z,7.80
2018-04-23T13:13:19.571Z,7.60
2018-04-23T13:14:18.899Z,7.80
2018-04-23T13:15:18.910Z,7.30